Time;durP1;ratioP1;P1;durP2;ratioP2;P2;SDS_P1;SDS_P2;PMS_P1;PMS_P2;Temp;Humidity;BMP_temperature;BMP_pressure;BME280_temperature;BME280_humidity;BME280_pressure;Samples;Min_cycle;Max_cycle;Signal;HPM_P1;HPM_P2
2023/06/09 00:01:37;;;;;;;0.10;0.10;;;12.60;99.90;;;;;;4857380;29;20086;-75
2023/06/09 00:04:04;;;;;;;0.10;0.10;;;12.60;99.90;;;;;;4839040;29;20068;-75
2023/06/09 00:06:30;;;;;;;0.10;0.10;;;12.60;99.90;;;;;;4836982;29;20107;-75
2023/06/09 00:08:59;;;;;;;0.20;0.20;;;12.60;99.90;;;;;;4851415;29;20214;-75
2023/06/09 00:11:26;;;;;;;0.20;0.20;;;12.60;99.90;;;;;;4857822;29;20494;-75
2023/06/09 00:13:52;;;;;;;0.10;0.10;;;12.60;99.90;;;;;;4852712;29;20056;-75
2023/06/09 00:16:18;;;;;;;0.20;0.20;;;12.60;99.90;;;;;;4848202;29;20119;-75
2023/06/09 00:18:45;;;;;;;0.20;0.20;;;12.60;99.90;;;;;;4854578;29;20490;-75
2023/06/09 00:21:15;;;;;;;0.10;0.10;;;12.50;99.90;;;;;;4842443;29;20049;-75
2023/06/09 00:23:44;;;;;;;0.20;0.20;;;12.50;99.90;;;;;;4843130;29;20585;-75
2023/06/09 00:26:10;;;;;;;0.20;0.20;;;12.50;99.90;;;;;;4843542;29;20052;-75
2023/06/09 00:28:35;;;;;;;0.17;0.17;;;12.50;99.90;;;;;;4842979;29;20141;-75
2023/06/09 00:31:01;;;;;;;0.13;0.13;;;12.50;99.90;;;;;;4844265;29;20158;-75
2023/06/09 00:33:27;;;;;;;0.10;0.10;;;12.50;99.90;;;;;;4841685;29;20398;-75
2023/06/09 00:35:52;;;;;;;0.20;0.20;;;12.50;99.90;;;;;;4841474;29;20058;-75
2023/06/09 00:38:18;;;;;;;0.10;0.10;;;12.50;99.90;;;;;;4860029;29;20053;-75
2023/06/09 00:40:44;;;;;;;0.10;0.10;;;12.50;99.90;;;;;;4842223;29;20057;-75
2023/06/09 00:43:09;;;;;;;0.17;0.17;;;12.40;99.90;;;;;;4836946;29;20058;-75
2023/06/09 00:45:35;;;;;;;0.20;0.20;;;12.40;99.90;;;;;;4859835;29;20075;-75
2023/06/09 00:48:01;;;;;;;0.20;0.20;;;12.40;99.90;;;;;;4841480;29;20054;-75
2023/06/09 00:50:27;;;;;;;0.10;0.10;;;12.40;99.90;;;;;;4841231;29;20033;-75
2023/06/09 00:52:54;;;;;;;0.20;0.20;;;12.50;99.90;;;;;;4839214;29;20049;-75
2023/06/09 00:55:21;;;;;;;0.20;0.20;;;12.50;99.90;;;;;;4857070;29;20068;-75
2023/06/09 00:57:48;;;;;;;0.20;0.20;;;12.40;99.90;;;;;;4842131;29;20056;-75
2023/06/09 01:00:16;;;;;;;0.10;0.10;;;12.50;99.90;;;;;;4842561;29;20041;-75
2023/06/09 01:02:42;;;;;;;0.20;0.20;;;12.50;99.90;;;;;;4836687;29;20061;-75
2023/06/09 01:05:09;;;;;;;0.20;0.20;;;12.50;99.90;;;;;;4825361;29;20486;-75
2023/06/09 01:07:55;;;;;;;0.20;0.20;;;12.40;99.90;;;;;;4852273;29;20041;-75
2023/06/09 01:10:59;;;;;;;0.20;0.20;;;12.40;99.90;;;;;;4858989;29;20443;-75
2023/06/09 01:13:38;;;;;;;0.10;0.10;;;12.40;99.90;;;;;;4844630;29;20080;-75
2023/06/09 01:16:11;;;;;;;0.20;0.20;;;12.40;99.90;;;;;;4840416;29;20438;-75
2023/06/09 01:18:42;;;;;;;0.20;0.20;;;12.40;99.90;;;;;;4842412;29;20059;-75
2023/06/09 01:21:35;;;;;;;0.20;0.20;;;12.40;99.90;;;;;;4859698;29;20140;-75
2023/06/09 01:24:00;;;;;;;0.20;0.20;;;12.40;99.90;;;;;;4858500;29;20078;-76
2023/06/09 01:26:28;;;;;;;0.20;0.20;;;12.40;99.90;;;;;;4842661;29;20046;-75
2023/06/09 01:28:56;;;;;;;0.17;0.17;;;12.40;99.90;;;;;;4858068;29;20145;-75
2023/06/09 01:31:24;;;;;;;0.20;0.20;;;12.40;99.90;;;;;;4842248;29;20045;-75
2023/06/09 01:33:50;;;;;;;0.10;0.10;;;12.40;99.90;;;;;;4856864;29;20058;-75
2023/06/09 01:36:16;;;;;;;0.20;0.20;;;12.40;99.90;;;;;;4842456;29;20050;-75
2023/06/09 01:38:43;;;;;;;0.20;0.20;;;12.40;99.90;;;;;;4858396;29;20051;-75
2023/06/09 01:41:08;;;;;;;0.20;0.20;;;12.40;99.90;;;;;;4841996;29;20186;-75
2023/06/09 01:43:35;;;;;;;0.10;0.10;;;12.40;99.90;;;;;;4859740;29;20140;-75
2023/06/09 01:46:00;;;;;;;0.20;0.20;;;12.40;99.90;;;;;;4842332;29;20539;-75
2023/06/09 01:48:41;;;;;;;0.13;0.13;;;12.40;99.90;;;;;;4841285;29;20092;-75
2023/06/09 01:51:12;;;;;;;0.20;0.20;;;12.40;99.90;;;;;;4841876;29;20054;-75
2023/06/09 01:53:43;;;;;;;0.20;0.20;;;12.40;99.90;;;;;;4858745;29;20113;-75
2023/06/09 01:56:21;;;;;;;0.20;0.20;;;12.40;99.90;;;;;;4837676;29;20104;-76
2023/06/09 01:58:53;;;;;;;0.20;0.20;;;12.40;99.90;;;;;;4839194;29;20085;-75
2023/06/09 02:01:22;;;;;;;0.10;0.10;;;12.40;99.90;;;;;;4855943;29;20121;-75
2023/06/09 02:03:51;;;;;;;0.20;0.20;;;12.40;99.90;;;;;;4839311;29;20045;-75
2023/06/09 02:06:20;;;;;;;0.15;0.15;;;12.40;99.90;;;;;;4840497;29;20045;-75
2023/06/09 02:08:46;;;;;;;0.10;0.10;;;12.40;99.90;;;;;;4856792;29;20078;-75
2023/06/09 02:11:12;;;;;;;0.10;0.10;;;12.40;99.90;;;;;;4855679;29;20601;-75
2023/06/09 02:13:38;;;;;;;0.20;0.20;;;12.40;99.90;;;;;;4840614;29;20054;-75
2023/06/09 02:16:03;;;;;;;0.10;0.10;;;12.40;99.90;;;;;;4856797;29;20053;-75
2023/06/09 02:18:32;;;;;;;0.20;0.20;;;12.40;99.90;;;;;;4839925;29;20046;-76
2023/06/09 02:20:58;;;;;;;0.20;0.20;;;12.40;99.90;;;;;;4833934;29;20061;-75
2023/06/09 02:23:24;;;;;;;0.15;0.15;;;12.40;99.90;;;;;;4837213;29;20096;-75
2023/06/09 02:25:50;;;;;;;0.10;0.10;;;12.40;99.90;;;;;;4847576;29;20124;-75
2023/06/09 02:28:16;;;;;;;0.10;0.10;;;12.40;99.90;;;;;;4854629;29;20128;-75
2023/06/09 02:30:45;;;;;;;0.20;0.20;;;12.40;99.90;;;;;;4857080;29;20046;-75
2023/06/09 02:33:14;;;;;;;0.10;0.10;;;12.40;99.90;;;;;;4839342;29;20060;-76
2023/06/09 02:35:39;;;;;;;0.10;0.10;;;12.40;99.90;;;;;;4841235;29;20058;-76
2023/06/09 02:38:05;;;;;;;0.10;0.10;;;12.40;99.90;;;;;;4857970;29;20076;-76
2023/06/09 02:40:32;;;;;;;0.10;0.10;;;12.40;99.90;;;;;;4838494;29;20046;-75
2023/06/09 02:42:58;;;;;;;0.10;0.10;;;12.40;99.90;;;;;;4832437;29;20054;-75
2023/06/09 02:45:24;;;;;;;0.10;0.10;;;12.40;99.90;;;;;;4829000;29;20143;-75
2023/06/09 02:47:50;;;;;;;0.17;0.17;;;12.40;99.90;;;;;;4838306;29;20088;-75
2023/06/09 02:50:17;;;;;;;0.20;0.20;;;12.30;99.90;;;;;;4839820;29;20065;-75
2023/06/09 02:52:42;;;;;;;0.13;0.13;;;12.30;99.90;;;;;;4856038;29;20054;-75
2023/06/09 02:55:08;;;;;;;0.10;0.10;;;12.30;99.90;;;;;;4835245;29;20042;-75
2023/06/09 02:57:34;;;;;;;0.20;0.20;;;12.30;99.90;;;;;;4852902;29;20089;-75
2023/06/09 03:00:00;;;;;;;0.20;0.20;;;12.30;99.90;;;;;;4856136;29;20045;-75
2023/06/09 03:02:27;;;;;;;0.20;0.20;;;12.30;99.90;;;;;;4850505;29;20064;-75
2023/06/09 03:04:53;;;;;;;0.10;0.10;;;12.30;99.90;;;;;;4854648;29;20109;-75
2023/06/09 03:07:19;;;;;;;0.20;0.20;;;12.30;99.90;;;;;;4838436;29;20361;-75
2023/06/09 03:09:44;;;;;;;0.10;0.10;;;12.30;99.90;;;;;;4854023;29;20049;-75
2023/06/09 03:12:10;;;;;;;0.13;0.13;;;12.30;99.90;;;;;;4857302;29;20044;-75
2023/06/09 03:14:36;;;;;;;0.20;0.20;;;12.30;99.90;;;;;;4840832;29;20128;-75
2023/06/09 03:17:04;;;;;;;0.20;0.20;;;12.30;99.90;;;;;;4856102;29;20133;-75
2023/06/09 03:19:30;;;;;;;0.20;0.20;;;12.30;99.90;;;;;;4837965;29;20113;-75
2023/06/09 03:21:57;;;;;;;0.17;0.17;;;12.30;99.90;;;;;;4842108;29;20113;-75
2023/06/09 03:24:23;;;;;;;0.20;0.20;;;12.30;99.90;;;;;;4854454;29;20081;-76
2023/06/09 03:26:49;;;;;;;0.10;0.10;;;12.30;99.90;;;;;;4840080;29;20046;-76
2023/06/09 03:29:15;;;;;;;0.20;0.20;;;12.30;99.90;;;;;;4856575;29;20186;-75
2023/06/09 03:31:41;;;;;;;0.13;0.13;;;12.30;99.90;;;;;;4853722;29;20485;-75
2023/06/09 03:34:07;;;;;;;0.10;0.10;;;12.30;99.90;;;;;;4835801;29;20045;-76
2023/06/09 03:36:35;;;;;;;0.17;0.17;;;12.30;99.90;;;;;;4855643;29;20402;-75
2023/06/09 03:39:02;;;;;;;0.22;0.20;;;12.40;99.90;;;;;;4839298;29;20068;-75
2023/06/09 03:41:27;;;;;;;0.20;0.20;;;12.40;99.90;;;;;;4852241;29;20041;-76
2023/06/09 03:43:53;;;;;;;0.15;0.15;;;12.40;99.90;;;;;;4852027;29;20383;-75
2023/06/09 03:46:19;;;;;;;0.20;0.20;;;12.40;99.90;;;;;;4855795;29;20552;-75
2023/06/09 03:48:45;;;;;;;0.10;0.10;;;12.40;99.90;;;;;;4855704;29;20053;-75
2023/06/09 03:51:10;;;;;;;0.20;0.20;;;12.40;99.90;;;;;;4839961;29;20141;-76
2023/06/09 03:53:36;;;;;;;0.20;0.20;;;12.50;99.90;;;;;;4840651;29;20050;-75
2023/06/09 03:56:02;;;;;;;0.20;0.20;;;12.50;99.90;;;;;;4853300;29;20506;-76
2023/06/09 03:58:27;;;;;;;0.20;0.20;;;12.50;99.90;;;;;;4835385;29;20049;-76
2023/06/09 04:00:53;;;;;;;0.20;0.20;;;12.50;99.90;;;;;;4856186;29;20042;-75
2023/06/09 04:03:22;;;;;;;0.15;0.15;;;12.50;99.90;;;;;;4855686;29;20084;-75
2023/06/09 04:05:48;;;;;;;0.10;0.10;;;12.50;99.90;;;;;;4857051;29;20042;-75
2023/06/09 04:08:13;;;;;;;0.20;0.20;;;12.60;99.90;;;;;;4839791;29;20101;-76
2023/06/09 04:10:40;;;;;;;0.17;0.17;;;12.60;99.90;;;;;;4857523;29;20053;-75
2023/06/09 04:13:07;;;;;;;0.20;0.20;;;12.60;99.90;;;;;;4839562;29;20500;-75
2023/06/09 04:15:33;;;;;;;0.20;0.20;;;12.60;99.90;;;;;;4857862;29;20394;-75
2023/06/09 04:17:59;;;;;;;0.20;0.20;;;12.70;99.90;;;;;;4840135;29;20049;-76
2023/06/09 04:20:25;;;;;;;0.13;0.13;;;12.70;99.90;;;;;;4839553;29;20057;-75
2023/06/09 04:22:52;;;;;;;0.20;0.20;;;12.70;99.90;;;;;;4855500;29;20059;-75
2023/06/09 04:25:28;;;;;;;0.20;0.20;;;12.70;99.90;;;;;;4838807;29;20076;-76
2023/06/09 04:27:54;;;;;;;0.20;0.20;;;12.80;99.90;;;;;;4854822;29;20049;-76
2023/06/09 04:30:29;;;;;;;0.20;0.20;;;12.80;99.90;;;;;;4840414;29;20433;-75
2023/06/09 04:32:58;;;;;;;0.10;0.10;;;12.80;99.90;;;;;;4824821;29;20775;-75
2023/06/09 04:35:24;;;;;;;0.10;0.10;;;12.90;99.90;;;;;;4839174;29;20042;-76
2023/06/09 04:37:50;;;;;;;0.20;0.20;;;12.90;99.90;;;;;;4839713;29;20045;-75
2023/06/09 04:40:23;;;;;;;0.20;0.20;;;13.00;99.90;;;;;;4855394;29;20121;-75
2023/06/09 04:42:55;;;;;;;0.10;0.10;;;13.00;99.90;;;;;;4839067;29;20065;-75
2023/06/09 04:45:25;;;;;;;0.20;0.20;;;13.00;99.90;;;;;;4836800;29;20061;-75
2023/06/09 04:47:51;;;;;;;0.13;0.13;;;13.00;99.90;;;;;;4837633;29;20409;-76
2023/06/09 04:50:16;;;;;;;0.20;0.20;;;13.00;99.90;;;;;;4838678;29;20041;-76
2023/06/09 04:52:44;;;;;;;0.20;0.20;;;13.10;99.90;;;;;;4856181;29;20401;-75
2023/06/09 04:55:12;;;;;;;0.10;0.10;;;13.10;99.90;;;;;;4852407;29;20112;-75
2023/06/09 04:57:38;;;;;;;0.10;0.10;;;13.20;99.90;;;;;;4833075;29;20427;-75
2023/06/09 05:00:18;;;;;;;0.10;0.10;;;13.20;99.90;;;;;;4836136;29;20045;-76
2023/06/09 05:02:44;;;;;;;0.20;0.20;;;13.30;99.90;;;;;;4849592;29;20068;-75
2023/06/09 05:05:10;;;;;;;0.10;0.10;;;13.30;99.90;;;;;;4855121;29;20041;-75
2023/06/09 05:07:39;;;;;;;0.10;0.10;;;13.30;99.90;;;;;;4858017;29;20045;-75
2023/06/09 05:10:09;;;;;;;0.10;0.10;;;13.30;99.90;;;;;;4857191;29;20080;-75
2023/06/09 05:12:38;;;;;;;0.20;0.20;;;13.40;99.90;;;;;;4842108;29;20041;-75
2023/06/09 05:15:05;;;;;;;0.22;0.22;;;13.40;99.90;;;;;;4858056;29;20493;-75
2023/06/09 05:17:36;;;;;;;0.20;0.20;;;13.50;99.90;;;;;;4845184;29;20049;-75
2023/06/09 05:20:05;;;;;;;;;;;13.50;99.90;;;;;;4858825;29;20072;-75
2023/06/09 05:22:32;;;;;;;0.10;0.10;;;13.60;99.90;;;;;;4842811;29;20292;-75
2023/06/09 05:24:57;;;;;;;0.20;0.20;;;13.60;99.90;;;;;;4859064;29;20588;-76
2023/06/09 05:27:23;;;;;;;0.20;0.20;;;13.70;99.90;;;;;;4842931;29;20049;-76
2023/06/09 05:29:49;;;;;;;0.20;0.20;;;13.70;99.90;;;;;;4856943;29;20193;-75
2023/06/09 05:32:15;;;;;;;0.10;0.10;;;13.70;99.90;;;;;;4858415;29;20049;-75
2023/06/09 05:34:41;;;;;;;0.20;0.20;;;13.80;99.90;;;;;;4853071;29;20500;-75
2023/06/09 05:37:07;;;;;;;0.10;0.10;;;14.00;99.90;;;;;;4840167;29;20057;-75
2023/06/09 05:39:32;;;;;;;0.20;0.20;;;13.90;99.90;;;;;;4839100;29;20046;-77
2023/06/09 05:42:00;;;;;;;0.20;0.20;;;13.90;99.90;;;;;;4843329;29;20065;-76
2023/06/09 05:44:26;;;;;;;0.20;0.20;;;14.00;99.90;;;;;;4840874;29;20313;-77
2023/06/09 05:46:52;;;;;;;0.20;0.20;;;14.00;99.90;;;;;;4840523;29;20049;-76
2023/06/09 05:49:18;;;;;;;0.20;0.20;;;14.00;99.90;;;;;;4855465;29;20056;-76
2023/06/09 05:51:44;;;;;;;0.20;0.20;;;14.10;99.90;;;;;;4836966;29;20053;-76
2023/06/09 05:54:10;;;;;;;0.20;0.20;;;14.10;99.90;;;;;;4866316;29;20056;-76
2023/06/09 05:56:37;;;;;;;0.10;0.10;;;14.20;99.90;;;;;;4844905;29;20129;-76
2023/06/09 05:59:03;;;;;;;0.20;0.20;;;14.20;99.90;;;;;;4852714;29;20103;-76
2023/06/09 06:01:32;;;;;;;0.10;0.10;;;14.30;99.90;;;;;;4843380;29;20448;-76
2023/06/09 06:03:59;;;;;;;0.20;0.20;;;14.30;99.90;;;;;;4857605;29;20471;-76
2023/06/09 06:06:24;;;;;;;0.13;0.13;;;14.40;99.90;;;;;;4841336;29;20065;-76
2023/06/09 06:08:50;;;;;;;0.20;0.20;;;14.50;99.90;;;;;;4839143;29;20496;-75
2023/06/09 06:11:16;;;;;;;0.10;0.10;;;14.50;99.90;;;;;;4857756;29;20053;-76
2023/06/09 06:13:41;;;;;;;0.20;0.20;;;14.50;99.90;;;;;;4858618;29;20471;-76
2023/06/09 06:16:07;;;;;;;0.17;0.17;;;14.60;99.90;;;;;;4857395;29;20042;-76
2023/06/09 06:18:33;;;;;;;0.15;0.15;;;14.70;99.90;;;;;;4860678;29;20049;-76
2023/06/09 06:20:59;;;;;;;0.20;0.20;;;14.70;99.90;;;;;;4836059;29;20092;-75
2023/06/09 06:23:25;;;;;;;0.20;0.20;;;14.80;99.90;;;;;;4854360;29;20125;-76
2023/06/09 06:25:50;;;;;;;0.20;0.20;;;14.80;99.90;;;;;;4857271;29;20371;-76
2023/06/09 06:28:16;;;;;;;0.20;0.20;;;14.90;99.90;;;;;;4837469;29;20049;-76
2023/06/09 06:30:46;;;;;;;0.20;0.20;;;15.00;99.90;;;;;;4858530;29;20042;-76
2023/06/09 06:33:11;;;;;;;0.20;0.20;;;15.00;99.90;;;;;;4840370;29;20057;-76
2023/06/09 06:35:37;;;;;;;0.10;0.10;;;15.10;99.90;;;;;;4858677;29;20060;-76
2023/06/09 06:38:03;;;;;;;0.20;0.20;;;15.10;99.90;;;;;;4842057;29;20050;-75
2023/06/09 06:40:29;;;;;;;0.20;0.20;;;15.10;99.90;;;;;;4857197;29;20046;-76
2023/06/09 06:42:54;;;;;;;0.20;0.20;;;15.20;99.90;;;;;;4841443;29;20049;-76
2023/06/09 06:45:20;;;;;;;0.10;0.10;;;15.20;99.90;;;;;;4842638;29;20057;-75
2023/06/09 06:47:49;;;;;;;0.20;0.20;;;15.30;99.90;;;;;;4857641;29;20125;-76
2023/06/09 06:50:15;;;;;;;0.10;0.10;;;15.40;99.90;;;;;;4839587;29;20050;-78
2023/06/09 06:52:41;;;;;;;0.10;0.10;;;15.40;99.90;;;;;;4839448;29;20635;-76
2023/06/09 06:55:08;;;;;;;0.20;0.20;;;15.50;99.90;;;;;;4853038;29;20485;-76
2023/06/09 06:57:35;;;;;;;0.20;0.20;;;15.50;99.90;;;;;;4858110;29;20050;-76
2023/06/09 07:00:05;;;;;;;0.30;0.30;;;15.60;99.90;;;;;;4855387;29;20041;-76
2023/06/09 07:02:31;;;;;;;0.20;0.20;;;15.70;99.90;;;;;;4857437;29;20095;-76
2023/06/09 07:04:59;;;;;;;0.20;0.20;;;15.70;99.90;;;;;;4855964;29;20442;-76
2023/06/09 07:07:26;;;;;;;0.10;0.10;;;15.80;99.90;;;;;;4858422;29;20187;-76
2023/06/09 07:09:51;;;;;;;0.20;0.20;;;15.80;99.90;;;;;;4841303;29;20105;-77
2023/06/09 07:12:17;;;;;;;0.20;0.20;;;15.90;99.90;;;;;;4841585;29;20498;-77
2023/06/09 07:14:43;;;;;;;0.20;0.20;;;15.90;99.90;;;;;;4855620;29;20055;-77
2023/06/09 07:17:09;;;;;;;0.10;0.10;;;16.00;99.90;;;;;;4856561;29;20076;-76
2023/06/09 07:19:35;;;;;;;0.20;0.20;;;16.10;99.90;;;;;;4837978;29;20041;-77
2023/06/09 07:22:01;;;;;;;0.20;0.20;;;16.10;99.90;;;;;;4840172;29;20108;-76
2023/06/09 07:24:27;;;;;;;0.20;0.20;;;16.20;99.90;;;;;;4853008;29;20120;-76
2023/06/09 07:26:53;;;;;;;0.15;0.15;;;16.30;99.90;;;;;;4856793;29;20150;-76
2023/06/09 07:29:19;;;;;;;0.20;0.20;;;16.30;99.90;;;;;;4834534;29;20050;-77
2023/06/09 07:31:45;;;;;;;0.20;0.20;;;16.30;99.90;;;;;;4853129;29;20121;-77
2023/06/09 07:34:11;;;;;;;0.10;0.10;;;16.40;99.90;;;;;;4838200;29;20073;-77
2023/06/09 07:36:37;;;;;;;0.20;0.20;;;16.50;99.90;;;;;;4838562;29;20077;-77
2023/06/09 07:39:04;;;;;;;0.20;0.20;;;16.50;99.90;;;;;;4831027;29;20403;-76
2023/06/09 07:41:30;;;;;;;0.10;0.10;;;16.60;99.90;;;;;;4858026;29;20049;-76
2023/06/09 07:43:56;;;;;;;0.13;0.13;;;16.70;99.90;;;;;;4856631;29;20057;-77
2023/06/09 07:46:23;;;;;;;0.13;0.13;;;16.70;99.90;;;;;;4858368;29;20546;-76
2023/06/09 07:48:49;;;;;;;0.20;0.20;;;16.80;99.90;;;;;;4837783;29;20064;-76
2023/06/09 07:51:16;;;;;;;0.20;0.20;;;16.80;99.90;;;;;;4832306;29;20057;-77
2023/06/09 07:53:46;;;;;;;0.10;0.10;;;16.90;99.90;;;;;;4840784;29;20057;-77
2023/06/09 07:56:11;;;;;;;0.20;0.20;;;17.00;99.90;;;;;;4840843;29;20068;-76
2023/06/09 07:58:37;;;;;;;0.20;0.20;;;17.00;99.90;;;;;;4840542;29;20049;-77
2023/06/09 08:01:03;;;;;;;0.10;0.10;;;17.10;99.90;;;;;;4838048;29;20398;-77
2023/06/09 08:03:29;;;;;;;0.10;0.10;;;17.20;99.90;;;;;;4839538;29;20100;-77
2023/06/09 08:05:55;;;;;;;0.20;0.20;;;17.30;99.90;;;;;;4840310;29;20482;-77
2023/06/09 08:08:21;;;;;;;0.20;0.20;;;17.30;99.90;;;;;;4857388;29;20053;-76
2023/06/09 08:10:47;;;;;;;0.20;0.20;;;17.40;99.90;;;;;;4857579;29;20045;-77
2023/06/09 08:13:15;;;;;;;0.20;0.20;;;17.40;99.90;;;;;;4840340;29;20065;-77
2023/06/09 08:15:41;;;;;;;0.20;0.20;;;17.50;99.90;;;;;;4857885;29;20052;-77
2023/06/09 08:18:06;;;;;;;0.20;0.20;;;17.60;99.90;;;;;;4837592;29;20042;-77
2023/06/09 08:20:32;;;;;;;0.10;0.10;;;17.70;99.90;;;;;;4839139;29;20116;-77
2023/06/09 08:22:58;;;;;;;0.10;0.10;;;17.70;99.90;;;;;;4840237;29;20500;-78
2023/06/09 08:25:24;;;;;;;0.20;0.20;;;17.80;99.90;;;;;;4840582;29;20117;-77
2023/06/09 08:27:50;;;;;;;0.20;0.20;;;17.80;99.90;;;;;;4857369;29;20077;-77
2023/06/09 08:30:16;;;;;;;0.20;0.20;;;17.90;99.90;;;;;;4841308;29;20414;-77
2023/06/09 08:32:41;;;;;;;0.20;0.20;;;18.00;99.90;;;;;;4839295;29;20053;-76
2023/06/09 08:35:08;;;;;;;0.20;0.20;;;18.10;99.90;;;;;;4856340;29;20052;-77
2023/06/09 08:37:35;;;;;;;0.20;0.20;;;18.10;99.90;;;;;;4824456;29;20130;-77
2023/06/09 08:40:04;;;;;;;0.20;0.20;;;18.20;99.90;;;;;;4841682;29;20620;-77
2023/06/09 08:42:31;;;;;;;0.10;0.10;;;18.30;99.90;;;;;;4842796;29;20045;-77
2023/06/09 08:45:02;;;;;;;0.20;0.20;;;18.30;99.90;;;;;;4842104;29;20146;-77
2023/06/09 08:47:28;;;;;;;0.20;0.20;;;18.40;99.90;;;;;;4841612;29;20252;-77
2023/06/09 08:49:57;;;;;;;0.20;0.20;;;18.40;99.90;;;;;;4833278;29;20042;-77
2023/06/09 08:52:27;;;;;;;0.20;0.20;;;18.60;99.90;;;;;;4861176;29;20049;-77
2023/06/09 08:54:56;;;;;;;0.10;0.10;;;18.60;99.90;;;;;;4842865;29;20054;-77
2023/06/09 08:57:22;;;;;;;0.20;0.20;;;18.70;99.90;;;;;;4860892;29;20105;-77
2023/06/09 08:59:48;;;;;;;0.20;0.20;;;18.80;99.90;;;;;;4860394;29;20120;-76
2023/06/09 09:02:14;;;;;;;0.20;0.20;;;18.80;99.90;;;;;;4856645;29;20485;-77
2023/06/09 09:04:40;;;;;;;0.20;0.20;;;18.90;99.90;;;;;;4842428;29;20148;-77
2023/06/09 09:07:11;;;;;;;0.20;0.20;;;19.00;99.90;;;;;;4860533;29;20414;-77
2023/06/09 09:09:37;;;;;;;;;;;19.00;99.90;;;;;;4859723;29;20472;-77
2023/06/09 09:12:03;;;;;;;0.20;0.20;;;19.10;99.90;;;;;;4860227;29;20015;-77
2023/06/09 09:14:29;;;;;;;0.20;0.20;;;19.20;99.90;;;;;;4843165;29;20423;-77
2023/06/09 09:16:55;;;;;;;0.20;0.20;;;19.30;99.90;;;;;;4859783;29;20041;-77
2023/06/09 09:19:28;;;;;;;0.20;0.20;;;19.30;99.90;;;;;;4858748;29;20050;-77
2023/06/09 09:22:01;;;;;;;0.20;0.20;;;19.40;99.90;;;;;;4859243;29;20513;-77
2023/06/09 09:24:30;;;;;;;0.20;0.20;;;19.50;99.90;;;;;;4842699;29;20053;-77
2023/06/09 09:26:58;;;;;;;0.20;0.20;;;19.50;99.90;;;;;;4843057;29;20049;-77
2023/06/09 09:29:28;;;;;;;0.20;0.20;;;19.60;99.90;;;;;;4859506;29;20053;-77
2023/06/09 09:31:58;;;;;;;0.20;0.20;;;19.70;99.90;;;;;;4843737;29;20398;-77
2023/06/09 09:34:30;;;;;;;0.15;0.15;;;19.80;99.90;;;;;;4842469;29;20418;-78
2023/06/09 09:36:56;;;;;;;0.20;0.20;;;19.80;99.90;;;;;;4842379;29;20048;-77
2023/06/09 09:39:22;;;;;;;0.10;0.10;;;19.90;99.90;;;;;;4859711;29;20131;-77
2023/06/09 09:42:07;;;;;;;0.20;0.20;;;20.00;99.90;;;;;;4842601;29;20121;-77
2023/06/09 09:44:46;;;;;;;0.20;0.20;;;20.00;99.90;;;;;;4842127;29;20065;-77
2023/06/09 09:47:14;;;;;;;0.20;0.20;;;20.10;99.90;;;;;;4843379;29;20045;-77
2023/06/09 09:49:54;;;;;;;0.20;0.20;;;20.20;99.90;;;;;;4856960;29;20046;-77
2023/06/09 09:52:27;;;;;;;0.10;0.10;;;20.20;99.90;;;;;;4841449;29;20046;-77
2023/06/09 09:54:54;;;;;;;0.20;0.20;;;20.30;99.90;;;;;;4847905;29;20053;-77
2023/06/09 09:57:22;;;;;;;0.20;0.20;;;20.40;99.90;;;;;;4854599;29;20041;-77
2023/06/09 09:59:49;;;;;;;0.20;0.20;;;20.50;99.90;;;;;;4842019;29;20084;-77
2023/06/09 10:02:21;;;;;;;0.20;0.20;;;20.60;99.90;;;;;;4836008;29;20088;-78
2023/06/09 10:04:48;;;;;;;0.20;0.20;;;20.60;99.90;;;;;;4840240;29;20045;-78
2023/06/09 10:07:17;;;;;;;0.20;0.20;;;20.70;99.90;;;;;;4842298;29;20046;-77
2023/06/09 10:09:43;;;;;;;0.20;0.20;;;20.80;99.90;;;;;;4840366;29;20140;-77
2023/06/09 10:12:10;;;;;;;0.20;0.20;;;20.90;99.90;;;;;;4857364;29;20557;-78
2023/06/09 10:14:35;;;;;;;0.20;0.20;;;20.90;99.90;;;;;;4857609;29;20426;-77
2023/06/09 10:17:02;;;;;;;0.20;0.20;;;21.00;99.90;;;;;;4859136;29;20050;-77
2023/06/09 10:19:28;;;;;;;0.20;0.20;;;21.10;99.90;;;;;;4840917;29;20053;-78
2023/06/09 10:21:55;;;;;;;0.20;0.20;;;21.10;99.90;;;;;;4857674;29;20053;-78
2023/06/09 10:24:22;;;;;;;0.20;0.20;;;21.20;99.90;;;;;;4857429;29;20041;-77
2023/06/09 10:26:49;;;;;;;0.20;0.20;;;21.30;99.90;;;;;;4870597;29;20063;-78
2023/06/09 10:29:15;;;;;;;0.20;0.20;;;21.30;99.90;;;;;;4837048;29;20061;-78
2023/06/09 10:31:45;;;;;;;0.20;0.20;;;21.40;99.90;;;;;;4842628;29;20558;-77
2023/06/09 10:34:14;;;;;;;0.20;0.20;;;21.40;99.90;;;;;;4837194;29;20120;-79
2023/06/09 10:36:40;;;;;;;0.20;0.20;;;21.50;99.90;;;;;;4875264;29;20450;-78
2023/06/09 10:39:23;;;;;;;0.20;0.20;;;21.60;99.90;;;;;;4853242;29;20037;-78
2023/06/09 10:42:05;;;;;;;0.20;0.20;;;21.70;99.90;;;;;;4841684;29;20197;-78
2023/06/09 10:45:12;;;;;;;0.63;0.30;;;21.80;99.90;;;;;;4825190;29;20145;-78
2023/06/09 10:47:51;;;;;;;0.20;0.20;;;21.90;99.90;;;;;;4861434;29;20447;-79
2023/06/09 10:50:32;;;;;;;0.20;0.20;;;22.00;99.90;;;;;;4839776;29;20038;-78
2023/06/09 10:52:59;;;;;;;0.20;0.20;;;22.10;99.90;;;;;;4842962;29;20061;-78
2023/06/09 10:55:30;;;;;;;0.20;0.20;;;22.20;99.90;;;;;;4851988;29;20041;-79
2023/06/09 10:57:57;;;;;;;0.20;0.20;;;22.30;99.90;;;;;;4843032;29;20268;-78
2023/06/09 11:00:25;;;;;;;0.20;0.20;;;22.30;99.90;;;;;;4852976;29;20434;-78
2023/06/09 11:03:19;;;;;;;0.20;0.20;;;22.40;99.90;;;;;;4835930;29;20065;-78
2023/06/09 11:06:00;;;;;;;0.20;0.20;;;22.50;99.90;;;;;;4828034;29;20499;-78
2023/06/09 11:08:25;;;;;;;0.20;0.20;;;22.60;99.90;;;;;;4836920;29;20046;-78
2023/06/09 11:10:51;;;;;;;0.20;0.20;;;22.70;99.90;;;;;;4840624;29;20513;-78
2023/06/09 11:13:39;;;;;;;0.20;0.20;;;22.80;99.90;;;;;;4839967;29;20278;-78
2023/06/09 11:16:07;;;;;;;0.20;0.20;;;22.90;99.90;;;;;;4840328;29;20109;-78
2023/06/09 11:18:32;;;;;;;0.20;0.20;;;23.00;99.90;;;;;;4856092;29;20557;-78
2023/06/09 11:21:16;;;;;;;0.22;0.22;;;23.10;99.80;;;;;;4840608;29;20145;-78
2023/06/09 11:24:02;;;;;;;0.20;0.20;;;23.20;99.70;;;;;;4840169;29;20049;-78
2023/06/09 11:26:30;;;;;;;0.20;0.20;;;23.30;99.70;;;;;;4855754;29;20141;-79
2023/06/09 11:28:56;;;;;;;0.20;0.20;;;23.40;99.40;;;;;;4839761;29;20046;-79
2023/06/09 11:31:21;;;;;;;0.20;0.20;;;23.60;99.20;;;;;;4858306;29;20049;-78
2023/06/09 11:33:53;;;;;;;0.20;0.20;;;23.60;99.10;;;;;;4840252;29;20050;-78
2023/06/09 11:36:27;;;;;;;0.20;0.20;;;23.70;99.00;;;;;;4841034;29;20057;-77
2023/06/09 11:39:00;;;;;;;0.20;0.20;;;23.80;98.90;;;;;;4841260;29;20057;-78
2023/06/09 11:41:27;;;;;;;0.20;0.20;;;23.90;98.60;;;;;;4857678;29;20498;-79
2023/06/09 11:43:54;;;;;;;0.20;0.20;;;24.00;98.40;;;;;;4834685;29;20538;-78
2023/06/09 11:46:20;;;;;;;0.20;0.20;;;24.10;98.30;;;;;;4855994;29;20056;-78
2023/06/09 11:49:07;;;;;;;0.20;0.20;;;24.30;98.20;;;;;;4855776;29;20093;-79
2023/06/09 11:51:55;;;;;;;0.20;0.20;;;24.30;98.20;;;;;;4856313;29;20376;-78
2023/06/09 11:54:21;;;;;;;0.20;0.20;;;24.40;97.60;;;;;;4840364;29;20519;-78
2023/06/09 11:56:47;;;;;;;0.20;0.20;;;24.50;97.70;;;;;;4839684;29;20049;-78
2023/06/09 11:59:18;;;;;;;0.20;0.20;;;24.60;97.60;;;;;;4840184;29;20054;-78
2023/06/09 12:01:43;;;;;;;0.20;0.20;;;24.60;97.30;;;;;;4858076;29;20049;-78
2023/06/09 12:04:09;;;;;;;0.20;0.20;;;24.70;97.00;;;;;;4835688;29;20315;-77
2023/06/09 12:06:36;;;;;;;0.20;0.20;;;24.80;96.90;;;;;;4856626;29;20084;-77
2023/06/09 12:09:22;;;;;;;0.20;0.20;;;24.90;96.80;;;;;;4856988;29;20525;-77
2023/06/09 12:11:52;;;;;;;0.20;0.20;;;25.00;96.50;;;;;;4840665;29;20719;-77
2023/06/09 12:14:20;;;;;;;0.20;0.20;;;25.10;96.20;;;;;;4861760;29;20384;-77
2023/06/09 12:16:45;;;;;;;0.20;0.20;;;25.10;95.80;;;;;;4845111;29;20050;-77
2023/06/09 12:19:11;;;;;;;0.20;0.20;;;25.20;95.40;;;;;;4859512;29;20097;-77
2023/06/09 12:21:37;;;;;;;0.20;0.20;;;25.30;95.60;;;;;;4861444;29;20375;-77
2023/06/09 12:24:03;;;;;;;0.20;0.20;;;25.40;95.60;;;;;;4844245;29;20053;-77
2023/06/09 12:26:44;;;;;;;0.20;0.20;;;25.40;95.20;;;;;;4843852;29;20057;-77
2023/06/09 12:29:10;;;;;;;0.20;0.20;;;25.50;94.90;;;;;;4844226;29;20057;-77
2023/06/09 12:31:44;;;;;;;0.20;0.20;;;25.60;94.90;;;;;;4860933;29;20042;-77
2023/06/09 12:34:23;;;;;;;0.20;0.20;;;25.70;94.70;;;;;;4843335;29;20049;-77
2023/06/09 12:36:50;;;;;;;0.20;0.20;;;25.80;94.40;;;;;;4844785;29;20486;-77
2023/06/09 12:39:17;;;;;;;0.20;0.20;;;25.90;94.30;;;;;;4843417;29;20529;-77
2023/06/09 12:41:42;;;;;;;0.20;0.20;;;25.90;94.50;;;;;;4843804;29;20042;-77
2023/06/09 12:44:08;;;;;;;0.20;0.20;;;26.10;94.60;;;;;;4843725;29;20104;-77
2023/06/09 12:46:38;;;;;;;0.20;0.20;;;26.10;94.40;;;;;;4843912;29;20113;-77
2023/06/09 12:49:08;;;;;;;0.20;0.20;;;26.20;94.30;;;;;;4842926;29;20368;-77
2023/06/09 12:51:41;;;;;;;0.28;0.28;;;26.30;93.90;;;;;;4831331;29;20061;-77
2023/06/09 12:54:07;;;;;;;0.20;0.20;;;26.40;94.00;;;;;;4852805;29;20053;-77